WetterOnline ( https://www.wetteronline.de )

Wetter aktuell Oschatz

Aktuelles Wetter: Oschatz (152m)

6-stündlich | Neueste Meldungen
Ortszeit Temperatur Wetter
Sa, 24.08. 14:00 27.7° C leicht bewölkt
Sa, 24.08. 8:00 14.6° C wolkenlos
Sa, 24.08. 2:00 14.4° C wolkenlos
Fr, 23.08. 20:00 25.0° C wolkenlos
Fr, 23.08. 14:00 25.9° C wolkenlos
Fr, 23.08. 8:00 13.5° C wolkenlos
Fr, 23.08. 2:00 12.2° C wolkenlos
Do, 22.08. 20:00 23.2° C leicht bewölkt
Ortszeit Temperatur Wetter
Sa, 24.08. 16:00 28.8° C leicht bewölkt
Sa, 24.08. 15:50 28.8° C leicht bewölkt
Sa, 24.08. 15:40 29.2° C leicht bewölkt
Sa, 24.08. 15:30 28.4° C wolkenlos
Sa, 24.08. 15:20 28.4° C wolkenlos
Sa, 24.08. 15:10 28.6° C fast wolkenlos
Sa, 24.08. 15:00 28.5° C leicht bewölkt
Sa, 24.08. 14:30 28.4° C fast wolkenlos
Sa, 24.08. 14:00 27.7° C leicht bewölkt
Sa, 24.08. 13:30 27.0° C wolkig
Sa, 24.08. 13:00 26.3° C leicht bewölkt
Ortszeit Relative Feuchte Sichtweite
Sa, 24.08. 14:00 42% 65 km
Sa, 24.08. 8:00 86% 17 km
Sa, 24.08. 2:00 81% 35 km
Fr, 23.08. 20:00 41% 55 km
Fr, 23.08. 14:00 35% 50 km
Fr, 23.08. 8:00 85% 23 km
Fr, 23.08. 2:00 92% 26 km
Do, 22.08. 20:00 43% >70 km
Ortszeit Relative Feuchte Sichtweite
Sa, 24.08. 16:00 42% 40 km
Sa, 24.08. 15:50 42% -
Sa, 24.08. 15:40 40% -
Sa, 24.08. 15:30 40% 45 km
Sa, 24.08. 15:20 40% -
Sa, 24.08. 15:10 39% -
Sa, 24.08. 15:00 38% 55 km
Sa, 24.08. 14:30 42% 35 km
Sa, 24.08. 14:00 42% 65 km
Sa, 24.08. 13:30 43% 35 km
Sa, 24.08. 13:00 46% 30 km
Ortszeit Niederschlagsmenge Niederschlagsart
Sa, 24.08. 14:00 0.0 l/m2 in 6 Std. -
Sa, 24.08. 8:00 0.0 l/m2 in 12 Std. -
Sa, 24.08. 2:00 0.0 l/m2 in 6 Std. -
Fr, 23.08. 20:00 0.0 l/m2 in 12 Std. -
Fr, 23.08. 14:00 0.0 l/m2 in 6 Std. -
Fr, 23.08. 8:00 0.0 l/m2 in 12 Std. -
Fr, 23.08. 2:00 0.0 l/m2 in 6 Std. -
Do, 22.08. 20:00 0.0 l/m2 in 12 Std. -
Ortszeit Niederschlagsmenge Niederschlagsart
Sa, 24.08. 16:00 0.0 l/m2 in 1 Std. -
Sa, 24.08. 15:50 keine Meldung -
Sa, 24.08. 15:40 keine Meldung -
Sa, 24.08. 15:30 0.0 l/m2 in 1 Std. -
Sa, 24.08. 15:20 keine Meldung -
Sa, 24.08. 15:10 keine Meldung -
Sa, 24.08. 15:00 0.0 l/m2 in 1 Std. -
Sa, 24.08. 14:30 0.0 l/m2 in 1 Std. -
Sa, 24.08. 14:00 0.0 l/m2 in 1 Std. -
Sa, 24.08. 13:30 0.0 l/m2 in 1 Std. -
Sa, 24.08. 13:00 0.0 l/m2 in 1 Std. -
Ortszeit Stärke Spitze Richtung
km/h Bft. km/h Grad Sektor
Sa, 24.08. 14:00 15 3 26 80° O
Sa, 24.08. 8:00 4 1 11 30° NO
Sa, 24.08. 2:00 6 1 13 350° N
Fr, 23.08. 20:00 7 2 22 80° O
Fr, 23.08. 14:00 7 2 18 110° O
Fr, 23.08. 8:00 0 0 7 - -
Fr, 23.08. 2:00 2 1 11 310° NW
Do, 22.08. 20:00 9 2 22 60° NO
Ortszeit Stärke Spitze Richtung
km/h Bft. km/h Grad Sektor
Sa, 24.08. 16:00 13 3 24 110° O
Sa, 24.08. 15:50 13 3 - 110° O
Sa, 24.08. 15:40 15 3 - 110° O
Sa, 24.08. 15:30 13 3 22 90° O
Sa, 24.08. 15:20 13 3 - 90° O
Sa, 24.08. 15:10 13 3 - 110° O
Sa, 24.08. 15:00 14 3 29 110° O
Sa, 24.08. 14:30 11 2 29 60° NO
Sa, 24.08. 14:00 15 3 26 80° O
Sa, 24.08. 13:30 14 3 25 60° NO
Sa, 24.08. 13:00 14 3 25 90° O
Ortszeit Untergrenze Bedeckung Gattung
total tief tief mittel hoch
Sa, 24.08. 14:00 1800 m 7/8 1/8 - - -
Sa, 24.08. 8:00 - 0/8 0/8 - - -
Sa, 24.08. 2:00 - 0/8 0/8 - - -
Fr, 23.08. 20:00 - 0/8 0/8 - - -
Fr, 23.08. 14:00 - 0/8 0/8 - - -
Fr, 23.08. 8:00 - 0/8 0/8 - - -
Fr, 23.08. 2:00 - 0/8 0/8 - - -
Do, 22.08. 20:00 10500 m 5/8 0/8 - - -
Ortszeit Bedeckungsgrad in Achtel und Wolkenuntergrenze
Sa, 24.08. 16:00 3(1500m) 3(9000m)
Sa, 24.08. 15:50 3(1500m) 3(9000m)
Sa, 24.08. 15:40 2(1500m)
Sa, 24.08. 15:30 keine Wolken
Sa, 24.08. 15:20 keine Wolken
Sa, 24.08. 15:10 1(1500m)
Sa, 24.08. 15:00 4(1500m)
Sa, 24.08. 14:30 2(8700m)
Sa, 24.08. 14:00 1(1800m) 3(7800m) 7(9000m)
Sa, 24.08. 13:30 2(1800m) 5(7800m) 7(8400m)
Sa, 24.08. 13:00 7(8400m)
Ortszeit Luftdruck NN (hPa) Tendenz (hPa in 3 Std.)
Sa, 24.08. 14:00 1022 - 1,3
Sa, 24.08. 8:00 1024 0,0
Sa, 24.08. 2:00 1025 - 0,2
Fr, 23.08. 20:00 1024 - 0,5
Fr, 23.08. 14:00 1026 - 1,3
Fr, 23.08. 8:00 1027 + 0,6
Fr, 23.08. 2:00 1027 + 0,1
Do, 22.08. 20:00 1025 - 0,2
Ortszeit Luftdruck NN (hPa) Tendenz (hPa in 3 Std.)
Sa, 24.08. 16:00 1021 - 1,3
Sa, 24.08. 15:50 1021 keine Meldung
Sa, 24.08. 15:40 1021 keine Meldung
Sa, 24.08. 15:30 1022 - 1,1
Sa, 24.08. 15:20 1022 keine Meldung
Sa, 24.08. 15:10 1022 keine Meldung
Sa, 24.08. 15:00 1022 - 1,4
Sa, 24.08. 14:30 1022 - 1,3
Sa, 24.08. 14:00 1022 - 1,3
Sa, 24.08. 13:30 1022 - 1,1
Sa, 24.08. 13:00 1023 - 0,8
Ortszeit Schneehöhe (cm)
Sa, 24.08. 14:00 -
Sa, 24.08. 8:00 -
Sa, 24.08. 2:00 -
Fr, 23.08. 20:00 -
Fr, 23.08. 14:00 -
Fr, 23.08. 8:00 -
Fr, 23.08. 2:00 -
Do, 22.08. 20:00 -
Ortszeit Schneehöhe (cm)
Sa, 24.08. 16:00 -
Sa, 24.08. 15:50 -
Sa, 24.08. 15:40 -
Sa, 24.08. 15:30 -
Sa, 24.08. 15:20 -
Sa, 24.08. 15:10 -
Sa, 24.08. 15:00 -
Sa, 24.08. 14:30 -
Sa, 24.08. 14:00 -
Sa, 24.08. 13:30 -
Sa, 24.08. 13:00 -
Link zu dieser Seite / Seite empfehlen

Das Wetter in ...